createdAt,value
2023-01-17T00:00:07.323Z,5.88
2023-01-17T00:05:29.413Z,5.92
2023-01-17T00:10:32.318Z,5.65
2023-01-17T00:15:35.363Z,5.79
2023-01-17T00:20:57.256Z,5.77
2023-01-17T00:26:05.979Z,6.20
2023-01-17T00:31:10.745Z,6.17
2023-01-17T00:36:14.119Z,6.20
2023-01-17T00:41:16.794Z,6.58
2023-01-17T00:46:38.877Z,6.56
2023-01-17T00:52:00.004Z,6.07
2023-01-17T00:57:21.167Z,6.45
2023-01-17T01:02:42.902Z,6.66
2023-01-17T01:08:04.347Z,6.27
2023-01-17T01:13:25.788Z,6.25
2023-01-17T01:18:47.645Z,6.72
2023-01-17T01:24:09.072Z,6.59
2023-01-17T01:29:30.348Z,6.23
2023-01-17T01:34:33.265Z,6.75
2023-01-17T01:39:36.223Z,6.98
2023-01-17T01:44:59.209Z,6.55
2023-01-17T01:50:06.077Z,6.62
2023-01-17T01:55:18.809Z,5.90
2023-01-17T02:00:30.070Z,6.59
2023-01-17T02:05:34.490Z,6.63
2023-01-17T02:10:39.867Z,7.43
2023-01-17T02:15:48.629Z,7.29
2023-01-17T02:20:59.407Z,6.77
2023-01-17T02:26:40.143Z,7.68
2023-01-17T02:31:51.889Z,8.32
2023-01-17T02:37:11.996Z,7.39
2023-01-17T02:42:20.984Z,6.93
2023-01-17T02:47:29.518Z,7.50
2023-01-17T02:52:56.456Z,7.64
2023-01-17T02:58:13.472Z,7.97
2023-01-17T03:03:28.499Z,7.25
2023-01-17T03:08:31.886Z,6.29
2023-01-17T03:13:34.677Z,5.95
2023-01-17T03:18:37.501Z,6.08
2023-01-17T03:23:40.378Z,6.60
2023-01-17T03:28:43.469Z,6.60
2023-01-17T03:33:46.933Z,7.04
2023-01-17T03:38:49.735Z,6.83
2023-01-17T03:43:52.518Z,7.29
2023-01-17T03:48:55.817Z,6.99
2023-01-17T03:53:58.537Z,6.75
2023-01-17T03:59:01.336Z,6.20
2023-01-17T04:04:04.181Z,6.01
2023-01-17T04:09:07.023Z,6.20
2023-01-17T04:14:09.794Z,6.25
2023-01-17T04:19:13.987Z,6.56
2023-01-17T04:24:18.004Z,6.39
2023-01-17T04:29:21.401Z,6.26
2023-01-17T04:34:24.624Z,6.16
2023-01-17T04:39:27.740Z,6.48
2023-01-17T04:44:30.826Z,6.34
2023-01-17T04:49:33.762Z,6.31
2023-01-17T04:54:36.675Z,6.13
2023-01-17T04:59:39.284Z,6.09
2023-01-17T05:04:42.097Z,5.58
2023-01-17T05:09:44.852Z,5.97
2023-01-17T05:14:47.708Z,5.91
2023-01-17T05:19:52.034Z,5.85
2023-01-17T05:24:54.843Z,5.60
2023-01-17T05:29:58.297Z,5.46
2023-01-17T05:35:02.966Z,5.96
2023-01-17T05:40:10.311Z,5.51
2023-01-17T05:45:17.023Z,6.11
2023-01-17T05:50:56.515Z,5.94
2023-01-17T05:56:21.299Z,5.82
2023-01-17T06:01:42.303Z,5.27
2023-01-17T06:06:45.178Z,6.03
2023-01-17T06:11:48.026Z,5.51
2023-01-17T06:16:50.896Z,5.45
2023-01-17T06:22:00.911Z,6.34
2023-01-17T06:27:04.797Z,5.57
2023-01-17T06:32:17.766Z,6.31
2023-01-17T06:37:20.424Z,6.09
2023-01-17T06:42:23.513Z,5.35
2023-01-17T06:47:26.418Z,5.57
2023-01-17T06:52:29.495Z,5.45
2023-01-17T06:57:32.355Z,5.87
2023-01-17T07:02:35.315Z,5.12
2023-01-17T07:07:38.144Z,5.67
2023-01-17T07:12:41.324Z,6.04
2023-01-17T07:18:14.241Z,6.01
2023-01-17T07:23:40.597Z,6.21
2023-01-17T07:28:43.508Z,5.55
2023-01-17T07:33:46.507Z,6.72
2023-01-17T07:39:21.759Z,7.37
2023-01-17T07:44:25.305Z,6.32
2023-01-17T07:50:02.164Z,6.05
2023-01-17T07:55:06.122Z,6.14
2023-01-17T08:00:09.687Z,6.44
2023-01-17T08:05:16.157Z,7.28
2023-01-17T08:10:19.629Z,6.30
2023-01-17T08:15:23.974Z,6.39
2023-01-17T08:20:28.145Z,6.33
2023-01-17T08:25:33.570Z,6.68
2023-01-17T08:30:36.616Z,6.23
2023-01-17T08:35:39.375Z,6.48
2023-01-17T08:41:46.615Z,6.51
2023-01-17T08:46:50.129Z,6.00
2023-01-17T09:00:01.573Z,6.46
2023-01-17T09:05:08.485Z,6.28
2023-01-17T09:10:14.072Z,6.40
2023-01-17T09:15:20.510Z,6.53
2023-01-17T09:20:24.479Z,6.77
2023-01-17T09:25:27.774Z,6.65
2023-01-17T09:30:30.645Z,7.07
2023-01-17T09:35:38.689Z,6.55
2023-01-17T09:40:47.928Z,7.06
2023-01-17T09:45:51.118Z,7.05
2023-01-17T09:51:00.837Z,7.37
2023-01-17T09:56:14.538Z,7.23
2023-01-17T10:01:27.567Z,6.47
2023-01-17T10:06:54.287Z,7.01
2023-01-17T10:12:39.163Z,6.99
2023-01-17T10:18:03.421Z,6.75
2023-01-17T10:23:18.455Z,6.39
2023-01-17T10:28:25.599Z,6.43
2023-01-17T10:33:36.455Z,6.55
2023-01-17T10:38:42.203Z,6.27
2023-01-17T10:43:55.526Z,6.45
2023-01-17T10:48:58.846Z,6.42
2023-01-17T10:54:04.815Z,6.70
2023-01-17T10:59:33.820Z,6.59
2023-01-17T11:04:40.614Z,6.83
2023-01-17T11:09:50.028Z,6.38
2023-01-17T11:15:04.945Z,6.25
2023-01-17T11:20:35.646Z,6.74
2023-01-17T11:25:39.428Z,6.14
2023-01-17T11:30:56.499Z,5.64
2023-01-17T11:35:59.486Z,6.15
2023-01-17T11:41:21.900Z,6.24
2023-01-17T11:46:25.631Z,6.35
2023-01-17T11:51:39.523Z,6.02
2023-01-17T11:56:46.476Z,5.77
2023-01-17T12:02:06.437Z,6.29
2023-01-17T12:07:38.525Z,6.64
2023-01-17T12:13:05.778Z,6.38
2023-01-17T12:18:45.894Z,6.65
2023-01-17T12:24:01.015Z,6.52
2023-01-17T12:29:28.050Z,6.48
2023-01-17T12:34:39.174Z,6.31
2023-01-17T12:39:49.608Z,5.57
2023-01-17T12:45:38.804Z,5.28
2023-01-17T12:50:51.401Z,5.53
2023-01-17T12:56:23.618Z,5.75
2023-01-17T13:01:40.028Z,5.51
2023-01-17T13:07:05.885Z,5.23
2023-01-17T13:12:15.500Z,5.82
2023-01-17T13:17:47.242Z,5.67
2023-01-17T13:22:52.366Z,5.15
2023-01-17T13:28:07.204Z,5.08
2023-01-17T13:33:37.562Z,4.34
2023-01-17T13:39:00.828Z,4.64
2023-01-17T13:44:23.228Z,3.76
2023-01-17T13:49:43.495Z,3.78
2023-01-17T13:54:52.884Z,3.85
2023-01-17T13:59:57.908Z,3.53
2023-01-17T14:05:18.827Z,4.14
2023-01-17T14:10:36.166Z,3.71
2023-01-17T14:15:50.163Z,4.00
2023-01-17T14:21:08.059Z,3.62
2023-01-17T14:26:22.733Z,3.08
2023-01-17T14:31:26.871Z,2.52
2023-01-17T14:36:33.515Z,2.57
2023-01-17T14:41:36.468Z,2.51
2023-01-17T14:46:39.363Z,2.32
2023-01-17T14:51:42.443Z,1.84
2023-01-17T14:56:48.435Z,1.76
2023-01-17T15:02:07.734Z,2.09
2023-01-17T15:07:19.083Z,1.61
2023-01-17T15:12:22.023Z,1.56
2023-01-17T15:17:25.225Z,1.65
2023-01-17T15:22:30.032Z,1.11
2023-01-17T15:27:33.183Z,1.12
2023-01-17T15:32:38.168Z,0.72
2023-01-17T15:37:42.004Z,0.87
2023-01-17T15:43:05.409Z,1.21
2023-01-17T15:48:26.591Z,1.07
2023-01-17T15:53:37.953Z,0.83
2023-01-17T15:58:40.862Z,0.69
2023-01-17T16:03:55.526Z,0.84
2023-01-17T16:08:58.560Z,0.80
2023-01-17T16:14:01.743Z,0.81
2023-01-17T16:19:05.691Z,0.70
2023-01-17T16:24:11.346Z,0.51
2023-01-17T16:29:14.225Z,0.26
2023-01-17T16:34:17.029Z,0.30
2023-01-17T16:39:19.898Z,0.25
2023-01-17T16:44:22.956Z,-0.09
2023-01-17T16:49:25.819Z,-0.18
2023-01-17T16:54:28.690Z,-0.04
2023-01-17T16:59:45.930Z,0.10
2023-01-17T17:04:52.816Z,-0.58
2023-01-17T17:09:55.746Z,-0.37
2023-01-17T17:14:58.476Z,-0.31
2023-01-17T17:20:01.204Z,0.38
2023-01-17T17:25:08.132Z,-0.30
2023-01-17T17:30:11.842Z,-0.24
2023-01-17T17:35:14.978Z,-0.73
2023-01-17T17:40:18.194Z,-0.63
2023-01-17T17:45:21.210Z,-0.37
2023-01-17T17:50:24.130Z,-0.44
2023-01-17T17:55:27.326Z,-0.30
2023-01-17T18:00:30.062Z,-0.44
2023-01-17T18:05:33.012Z,-0.81
2023-01-17T18:10:35.990Z,-0.91
2023-01-17T18:15:38.714Z,-0.98
2023-01-17T18:20:41.717Z,-0.73
2023-01-17T18:25:44.887Z,-0.99
2023-01-17T18:30:47.745Z,-0.80
2023-01-17T18:35:54.959Z,-0.87
2023-01-17T18:41:03.285Z,-0.85
2023-01-17T18:46:07.311Z,-1.06
2023-01-17T18:51:15.730Z,-1.26
2023-01-17T18:56:20.774Z,-1.37
2023-01-17T19:01:26.194Z,-1.41
2023-01-17T19:06:34.743Z,-0.98
2023-01-17T19:11:37.673Z,-1.44
2023-01-17T19:16:41.886Z,-1.42
2023-01-17T19:21:45.280Z,-1.51
2023-01-17T19:26:53.162Z,-1.35
2023-01-17T19:31:56.066Z,-1.27
2023-01-17T19:36:59.166Z,-1.80
2023-01-17T19:42:02.132Z,-1.63
2023-01-17T19:47:05.012Z,-1.71
2023-01-17T19:52:07.877Z,-1.42
2023-01-17T19:57:10.751Z,-1.72
2023-01-17T20:02:13.637Z,-1.73
2023-01-17T20:07:16.734Z,-1.97
2023-01-17T20:12:19.849Z,-1.76
2023-01-17T20:17:22.756Z,-1.18
2023-01-17T20:22:25.626Z,-1.17
2023-01-17T20:27:28.794Z,-0.64
2023-01-17T20:32:31.684Z,0.16
2023-01-17T20:37:34.501Z,0.71
2023-01-17T20:42:37.413Z,1.70
2023-01-17T20:47:41.644Z,1.92
2023-01-17T20:52:45.080Z,1.59
2023-01-17T20:57:48.108Z,1.72
2023-01-17T21:02:51.061Z,2.69
2023-01-17T21:07:54.210Z,2.29
2023-01-17T21:12:57.342Z,2.08
2023-01-17T21:18:00.539Z,1.09
2023-01-17T21:23:03.240Z,2.34
2023-01-17T21:28:06.584Z,2.20
2023-01-17T21:33:09.603Z,2.08
2023-01-17T21:38:14.130Z,2.33
2023-01-17T21:43:17.078Z,2.56
2023-01-17T21:48:20.128Z,1.28
2023-01-17T21:53:22.973Z,2.26
2023-01-17T21:58:43.850Z,1.83
2023-01-17T22:03:51.664Z,1.82
2023-01-17T22:08:55.157Z,2.55
2023-01-17T22:13:59.299Z,2.63
2023-01-17T22:19:02.258Z,2.54
2023-01-17T22:24:05.735Z,2.83
2023-01-17T22:29:11.384Z,3.42
2023-01-17T22:34:15.745Z,3.11
2023-01-17T22:39:18.630Z,2.89
2023-01-17T22:44:21.609Z,2.92
2023-01-17T22:49:24.858Z,3.37
2023-01-17T22:54:27.660Z,2.56
2023-01-17T22:59:30.554Z,3.61
2023-01-17T23:04:33.404Z,3.79
2023-01-17T23:09:36.298Z,2.67
2023-01-17T23:14:57.388Z,2.91
2023-01-17T23:20:00.149Z,3.24
2023-01-17T23:25:08.963Z,3.57
2023-01-17T23:30:14.590Z,3.76
2023-01-17T23:35:19.282Z,3.76
2023-01-17T23:40:22.349Z,3.26
2023-01-17T23:45:25.412Z,4.01
2023-01-17T23:50:28.411Z,2.98
2023-01-17T23:55:31.255Z,3.65
